Garden City, KS (67846)

8:46 AM CDT on May 24, 2015 (GMT -0500)
N0KQX | | Change Station
CLOSE
Current Station
Personal Weather Station
Location: Garden City, KS
Elevation: 2839 ft
Nearby Weather Stations
Active Advisory: Dense Fog Advisory

Elev 2839 ft 37.97 °N, 100.85 °W | Updated 10 seconds ago

Overcast
Overcast
60.0 °F
Feels Like 60.0 °F
N
0.0
Wind Variable Wind from SE
Gusts 0.0 mph

Today
High -- | Low -- °F
--% Chance of Precip.
Yesterday
High -- | Low -- °F
Precip. -- in
6:26 AM 8:54 PM
Waxing Crescent, 39% visible
Pressure 29.83 in
Visibility 6.0 miles
Clouds Few 300 ft
Mostly Cloudy 1800 ft
Overcast 2300 ft
Dew Point 59 °F
Humidity 97%
Rainfall 0.00 in
Snow Depth Not available.
UV 0 out of 12
Pollen 8.80 out of 12
Air Quality Not available.
Flu Activity No Activity
METAR KGCK 241254Z 12003KT 6SM BR FEW003 BKN018 OVC023 13/13 A2987 RMK AO2 SLP101 T01330133

More Conditions Fewer Conditions

Pressure 29.83 in
Visibility 6.0 miles
Clouds Few 300 ft
Mostly Cloudy 1800 ft
Overcast 2300 ft
Dew Point 59 °F
Humidity 97%
Rainfall 0.00 in
Snow Depth Not available.
UV 0 out of 12
Pollen 8.80 out of 12
Air Quality Not available.
Flu Activity No Activity
METAR KGCK 241254Z 12003KT 6SM BR FEW003 BKN018 OVC023 13/13 A2987 RMK AO2 SLP101 T01330133

More Conditions Fewer Conditions

10-Day Weather Forecast

Almanac

Astronomy

May. 24, 2015 Rise Set
Actual Time
Civil Twilight
Nautical Twilight
Astronomical Twilight
Moon
Length of Visible Light
Length of Day
Tomorrow will be .
, % of the Moon is Illuminated

Today's Extremes

State Highs State Lows

Community

WunderPhotos

Upload Photos

1,823,738 photos uploaded!

WunderBlogs® & News

Nearby

Air Quality

  Air Quality AQ Index Pollutant
Not available.

Snow Depth

Station Depth Elevation

Earthquake Activity

City Distance Mag. Time & Date
Minimum magnitude displayed is 2.5.

Coastal Water Temperatures

Place Temperature

Stations

Nearby Weather Stations

Station Location Temp. Windchill Dew Point Humidity Wind Precip. Elev Updated Type
                   
Dense Fog Advisory
Statement as of 7:26 AM CDT on May 24, 2015

... Dense fog advisory in effect until 11 am CDT this morning...

The National Weather Service in Dodge City has issued a dense fog
advisory... which is in effect until 11 am CDT this morning.

* Visibility... a quarter mile or less. Locally near zero.

* Impacts... significant reduction of visibility through mid
morning.

Precautionary/preparedness actions...

A dense fog advisory means visibilities will frequently be
reduced to less than one quarter mile. If driving... slow down...
use your headlights... and leave plenty of distance ahead of you.



33